WXM80 ListenWXM80 Stop

You find our weather info also at:

UK Metoffice

WeatherCloud

Weather Underground

Northeastern Weather Network

AWEKAS

Citizen Weather Observer Program (CWOP)

HAMweather, WeatherForYou, PWS Weather


Weather Underground History page Text

Daily Summary for August 12, 2017 Units:  English    Metric   Both
« Previous Day
Next Day »
Daily Weekly Monthly Yearly Custom
  High: Low: Average:
Temperature: 75.8 °F 62.6 °F 70.6 °F
Dew Point: 71.2 °F 59.7 °F 66.5 °F
Humidity: 94 % 74 % 87 %
Wind Speed: 3.8 mph 0.0 mph 0.4 mph
Wind Gust: 7.0 mph - -
Wind:- - ESE
Pressure: 29.98 in 29.81 in -
Precipitation: 0.06 in    
Historical Graphs
 
 
Tabular Data for August 12, 2017
Time Temperature Dew Point Pressure Wind Wind Speed Wind Gust Humidity Rainfall Rate (Hourly)
00:01 71.4 °F 62.7 °F 29.96 in Calm     74 % 0.00 in
00:04 71.4 °F 62.7 °F 29.96 in Calm   1.2 mph 74 % 0.00 in
00:09 71.3 °F 63.0 °F 29.96 in Calm     75 % 0.00 in
00:15 71.2 °F 62.5 °F 29.96 in Calm     74 % 0.00 in
00:20 71.2 °F 62.9 °F 29.96 in Calm     75 % 0.00 in
00:25 71.1 °F 63.1 °F 29.96 in Calm     76 % 0.00 in
00:30 71.1 °F 62.8 °F 29.96 in Calm     75 % 0.00 in
00:35 71.1 °F 63.5 °F 29.96 in Calm     77 % 0.00 in
00:40 71.1 °F 63.9 °F 29.95 in Calm     78 % 0.00 in
00:45 71.0 °F 64.2 °F 29.95 in Calm     79 % 0.00 in
00:50 70.9 °F 64.1 °F 29.96 in Calm     79 % 0.00 in
00:55 70.8 °F 64.7 °F 29.96 in Calm     81 % 0.00 in
01:00 70.7 °F 64.6 °F 29.96 in Calm     81 % 0.00 in
01:05 70.6 °F 64.8 °F 29.95 in Calm     82 % 0.00 in
01:10 70.4 °F 65.0 °F 29.95 in Calm     83 % 0.00 in
01:15 70.3 °F 64.9 °F 29.96 in Calm     83 % 0.00 in
01:20 70.1 °F 64.7 °F 29.96 in Calm     83 % 0.00 in
01:25 70.0 °F 64.9 °F 29.97 in Calm     84 % 0.00 in
01:30 69.9 °F 64.8 °F 29.97 in SE 0.1 mph 1.2 mph 84 % 0.00 in
01:35 69.8 °F 65.1 °F 29.96 in Calm     85 % 0.01 in
01:40 69.7 °F 65.0 °F 29.96 in Calm     85 % 0.01 in
01:45 69.6 °F 65.2 °F 29.96 in Calm     86 % 0.01 in
01:50 69.5 °F 65.1 °F 29.96 in Calm     86 % 0.01 in
01:55 69.5 °F 65.8 °F 29.96 in Calm     88 % 0.01 in
02:01 69.4 °F 65.4 °F 29.97 in Calm   1.2 mph 87 % 0.01 in
02:05 69.3 °F 65.6 °F 29.97 in Calm     88 % 0.01 in
02:10 69.2 °F 65.5 °F 29.97 in Calm     88 % 0.00 in
02:15 69.0 °F 65.3 °F 29.98 in Calm     88 % 0.01 in
02:20 68.5 °F 62.8 °F 29.98 in Calm   5.0 mph 82 % 0.00 in
02:26 68.0 °F 61.6 °F 29.98 in Calm   1.0 mph 80 % 0.01 in
02:30 67.9 °F 61.5 °F 29.97 in Calm     80 % 0.01 in
02:35 67.7 °F 61.6 °F 29.97 in Calm   1.0 mph 81 % 0.00 in
02:41 67.4 °F 61.7 °F 29.98 in Calm   2.0 mph 82 % 0.00 in
02:45 66.8 °F 61.1 °F 29.98 in Calm   1.0 mph 82 % 0.00 in
02:50 66.4 °F 60.7 °F 29.97 in Calm   1.0 mph 82 % 0.00 in
02:55 66.0 °F 60.0 °F 29.97 in Calm     81 % 0.00 in
03:01 65.7 °F 60.1 °F 29.97 in SSW 1.1 mph 1.2 mph 82 % 0.03 in
03:06 65.3 °F 59.7 °F 29.97 in Calm     82 % 0.03 in
03:11 65.0 °F 59.7 °F 29.97 in Calm     83 % 0.03 in
03:16 64.7 °F 60.1 °F 29.97 in Calm     85 % 0.04 in
03:21 64.4 °F 59.8 °F 29.97 in Calm     85 % 0.04 in
03:26 64.2 °F 59.9 °F 29.96 in Calm     86 % 0.03 in
03:31 64.0 °F 59.7 °F 29.96 in Calm   1.2 mph 86 % 0.03 in
03:36 63.8 °F 59.9 °F 29.96 in Calm     87 % 0.03 in
03:41 63.7 °F 60.1 °F 29.96 in Calm     88 % 0.02 in
03:46 63.5 °F 59.9 °F 29.96 in Calm     88 % 0.02 in
03:51 63.4 °F 59.8 °F 29.95 in Calm     88 % 0.02 in
03:56 63.2 °F 60.2 °F 29.95 in Calm   1.2 mph 90 % 0.02 in
04:01 63.2 °F 60.2 °F 29.93 in SSW 0.2 mph 1.2 mph 90 % 0.02 in
04:06 63.1 °F 60.4 °F 29.93 in Calm   1.2 mph 91 % 0.02 in
04:11 63.0 °F 60.3 °F 29.93 in Calm     91 % 0.02 in
04:16 62.9 °F 60.2 °F 29.92 in Calm     91 % 0.01 in
04:21 62.8 °F 60.1 °F 29.92 in Calm     91 % 0.01 in
04:26 62.7 °F 60.0 °F 29.92 in Calm   1.2 mph 91 % 0.01 in
04:31 62.7 °F 60.3 °F 29.92 in Calm     92 % 0.00 in
04:36 62.6 °F 60.2 °F 29.91 in SSE 1.1 mph 2.3 mph 92 % 0.00 in
04:41 62.7 °F 60.6 °F 29.91 in SSE 0.6 mph 3.5 mph 93 % 0.00 in
04:46 62.8 °F 60.7 °F 29.91 in SSE 0.9 mph 2.3 mph 93 % 0.00 in
04:51 62.9 °F 60.8 °F 29.91 in SSE 0.4 mph 2.3 mph 93 % 0.00 in
04:56 62.9 °F 60.8 °F 29.91 in Calm     93 % 0.00 in
05:01 62.9 °F 60.8 °F 29.91 in Calm     93 % 0.00 in
05:06 62.9 °F 60.8 °F 29.91 in Calm     93 % 0.00 in
05:11 63.0 °F 61.2 °F 29.91 in Calm     94 % 0.00 in
05:16 63.1 °F 61.3 °F 29.91 in Calm     94 % 0.00 in
05:21 63.1 °F 61.3 °F 29.92 in Calm     94 % 0.00 in
05:26 63.2 °F 61.4 °F 29.91 in Calm     94 % 0.00 in
05:31 63.3 °F 61.5 °F 29.91 in Calm     94 % 0.00 in
05:36 63.4 °F 61.6 °F 29.91 in Calm   1.2 mph 94 % 0.00 in
05:41 63.4 °F 61.6 °F 29.92 in Calm     94 % 0.00 in
05:46 63.5 °F 61.7 °F 29.92 in Calm     94 % 0.00 in
05:51 63.5 °F 61.7 °F 29.91 in Calm     94 % 0.00 in
05:56 63.5 °F 61.7 °F 29.92 in Calm     94 % 0.00 in
06:01 63.6 °F 61.8 °F 29.92 in Calm     94 % 0.00 in
06:06 63.5 °F 61.7 °F 29.92 in Calm     94 % 0.00 in
06:11 63.6 °F 61.8 °F 29.92 in SSE 0.2 mph 1.0 mph 94 % 0.00 in
06:16 63.6 °F 61.8 °F 29.92 in Calm   1.2 mph 94 % 0.00 in
06:21 63.6 °F 61.8 °F 29.92 in Calm     94 % 0.00 in
06:26 63.6 °F 61.8 °F 29.93 in Calm     94 % 0.00 in
06:32 63.7 °F 61.9 °F 29.92 in Calm   1.2 mph 94 % 0.00 in
06:37 63.7 °F 61.9 °F 29.92 in Calm     94 % 0.00 in
06:42 63.7 °F 61.9 °F 29.92 in Calm     94 % 0.00 in
06:47 63.8 °F 62.0 °F 29.93 in Calm     94 % 0.00 in
06:52 63.8 °F 62.0 °F 29.93 in Calm     94 % 0.00 in
06:57 63.9 °F 62.1 °F 29.92 in Calm     94 % 0.00 in
07:02 63.9 °F 62.1 °F 29.92 in Calm     94 % 0.00 in
07:07 63.9 °F 62.1 °F 29.92 in Calm   1.0 mph 94 % 0.00 in
07:12 63.9 °F 62.1 °F 29.92 in Calm   1.2 mph 94 % 0.00 in
07:17 64.0 °F 62.2 °F 29.92 in Calm   1.2 mph 94 % 0.00 in
07:22 64.1 °F 62.3 °F 29.92 in SSE 0.1 mph 1.2 mph 94 % 0.00 in
07:27 64.1 °F 62.3 °F 29.92 in Calm     94 % 0.00 in
07:32 64.3 °F 62.5 °F 29.92 in Calm     94 % 0.00 in
07:37 64.4 °F 62.6 °F 29.91 in Calm     94 % 0.00 in
07:42 64.4 °F 62.6 °F 29.91 in Calm   1.2 mph 94 % 0.00 in
07:47 64.5 °F 62.7 °F 29.91 in Calm     94 % 0.00 in
07:52 64.5 °F 62.4 °F 29.92 in Calm     93 % 0.00 in
07:57 64.7 °F 62.9 °F 29.91 in Calm   1.2 mph 94 % 0.00 in
08:02 64.9 °F 63.1 °F 29.91 in Calm   1.2 mph 94 % 0.00 in
08:07 65.0 °F 62.9 °F 29.91 in SE 0.6 mph 2.3 mph 93 % 0.00 in
08:12 65.2 °F 63.4 °F 29.91 in Calm   1.2 mph 94 % 0.00 in
08:17 65.4 °F 63.3 °F 29.91 in Calm   3.5 mph 93 % 0.00 in
08:22 65.4 °F 63.3 °F 29.91 in Calm   2.3 mph 93 % 0.00 in
08:27 65.6 °F 63.5 °F 29.91 in SE 0.3 mph 3.5 mph 93 % 0.00 in
08:32 65.8 °F 63.7 °F 29.91 in Calm   1.2 mph 93 % 0.00 in
08:38 66.1 °F 64.0 °F 29.91 in Calm   1.2 mph 93 % 0.00 in
08:43 66.3 °F 64.2 °F 29.91 in Calm     93 % 0.00 in
08:48 66.4 °F 64.0 °F 29.91 in Calm     92 % 0.00 in
08:53 66.6 °F 64.2 °F 29.91 in Calm     92 % 0.00 in
08:58 66.7 °F 64.3 °F 29.91 in Calm     92 % 0.00 in
09:03 66.9 °F 64.2 °F 29.91 in SE 0.4 mph 3.5 mph 91 % 0.00 in
09:08 67.1 °F 64.7 °F 29.91 in Calm   2.3 mph 92 % 0.00 in
09:13 67.4 °F 65.0 °F 29.91 in SE 0.2 mph 1.2 mph 92 % 0.00 in
09:18 67.6 °F 64.9 °F 29.91 in Calm     91 % 0.00 in
09:23 67.8 °F 65.1 °F 29.92 in Calm   1.2 mph 91 % 0.00 in
09:28 67.9 °F 65.2 °F 29.91 in Calm   1.2 mph 91 % 0.00 in
09:33 68.3 °F 65.9 °F 29.91 in SE 0.1 mph 1.2 mph 92 % 0.00 in
09:38 68.5 °F 65.4 °F 29.91 in SE 1.2 mph 2.3 mph 90 % 0.00 in
09:43 68.5 °F 65.1 °F 29.91 in Calm   2.3 mph 89 % 0.00 in
09:48 68.6 °F 65.2 °F 29.91 in SE 3.4 mph 5.8 mph 89 % 0.00 in
09:53 68.9 °F 65.8 °F 29.91 in SE 0.2 mph 1.2 mph 90 % 0.00 in
09:58 69.6 °F 66.9 °F 29.91 in SE 0.1 mph 1.2 mph 91 % 0.00 in
10:03 70.5 °F 67.4 °F 29.91 in Calm   1.2 mph 90 % 0.00 in
10:08 71.6 °F 68.2 °F 29.90 in SE 0.6 mph 2.3 mph 89 % 0.00 in
10:13 72.3 °F 68.2 °F 29.91 in SE 0.6 mph 1.2 mph 87 % 0.00 in
10:18 73.2 °F 69.4 °F 29.91 in SE 0.1 mph 1.2 mph 88 % 0.00 in
10:23 73.9 °F 68.8 °F 29.91 in NE 1.2 mph 3.5 mph 84 % 0.00 in
10:28 74.1 °F 68.6 °F 29.91 in SE 0.1 mph 1.2 mph 83 % 0.00 in
10:33 74.1 °F 67.9 °F 29.90 in Calm   1.2 mph 81 % 0.00 in
10:38 74.0 °F 67.4 °F 29.90 in Calm   1.2 mph 80 % 0.00 in
10:43 73.8 °F 67.6 °F 29.91 in Calm   1.2 mph 81 % 0.00 in
10:48 73.6 °F 67.4 °F 29.91 in East 0.5 mph 2.0 mph 81 % 0.00 in
10:53 73.4 °F 67.6 °F 29.91 in North 3.2 mph 4.0 mph 82 % 0.00 in
10:58 73.3 °F 67.5 °F 29.91 in NNE 3.8 mph 4.6 mph 82 % 0.00 in
11:03 73.0 °F 67.2 °F 29.90 in NE 1.1 mph 4.6 mph 82 % 0.00 in
11:08 72.8 °F 67.3 °F 29.90 in NNE 0.5 mph 2.3 mph 83 % 0.00 in
11:13 72.8 °F 67.3 °F 29.90 in NNE 0.4 mph 2.3 mph 83 % 0.00 in
11:18 72.9 °F 67.4 °F 29.90 in NNE 0.2 mph   83 % 0.00 in
11:23 73.0 °F 67.9 °F 29.90 in Calm     84 % 0.00 in
11:29 73.1 °F 67.6 °F 29.90 in NNE 0.7 mph 3.5 mph 83 % 0.00 in
11:33 73.1 °F 67.6 °F 29.90 in NNE 1.8 mph 3.5 mph 83 % 0.00 in
11:39 73.3 °F 67.8 °F 29.90 in North 1.5 mph 3.5 mph 83 % 0.00 in
11:44 73.4 °F 68.3 °F 29.90 in Calm   1.0 mph 84 % 0.00 in
11:49 73.5 °F 67.7 °F 29.90 in North 0.7 mph 3.5 mph 82 % 0.00 in
11:54 73.4 °F 67.6 °F 29.90 in North 1.0 mph 3.5 mph 82 % 0.00 in
11:59 73.3 °F 67.5 °F 29.91 in North 1.4 mph 3.5 mph 82 % 0.00 in
12:04 73.2 °F 67.4 °F 29.90 in NNE 0.9 mph 3.5 mph 82 % 0.00 in
12:09 73.1 °F 67.3 °F 29.91 in NNE 1.2 mph 3.0 mph 82 % 0.00 in
12:14 72.9 °F 67.1 °F 29.91 in NNE 0.7 mph 2.3 mph 82 % 0.00 in
12:19 72.8 °F 67.0 °F 29.91 in NNE 0.6 mph 2.3 mph 82 % 0.00 in
12:24 72.7 °F 67.2 °F 29.91 in NNE 0.2 mph 3.5 mph 83 % 0.00 in
12:29 72.4 °F 66.9 °F 29.91 in NE 1.3 mph 2.3 mph 83 % 0.00 in
12:34 72.2 °F 66.7 °F 29.90 in NNE 0.5 mph 4.0 mph 83 % 0.00 in
12:39 72.1 °F 67.0 °F 29.90 in Calm     84 % 0.00 in
12:44 72.0 °F 66.9 °F 29.90 in Calm     84 % 0.00 in
12:49 72.0 °F 66.9 °F 29.89 in NNE 0.3 mph 1.2 mph 84 % 0.00 in
12:54 72.0 °F 67.2 °F 29.89 in NNE 1.0 mph 3.5 mph 85 % 0.00 in
12:59 72.1 °F 67.3 °F 29.89 in NNE 0.3 mph 1.2 mph 85 % 0.00 in
13:04 72.2 °F 67.4 °F 29.89 in NE 2.7 mph 4.6 mph 85 % 0.00 in
13:09 72.6 °F 68.2 °F 29.89 in ENE 0.1 mph 2.3 mph 86 % 0.00 in
13:14 73.6 °F 69.2 °F 29.89 in NE 1.7 mph 3.5 mph 86 % 0.00 in
13:19 74.2 °F 69.1 °F 29.89 in North 2.9 mph 3.5 mph 84 % 0.00 in
13:24 74.3 °F 68.8 °F 29.89 in ENE 2.4 mph 3.5 mph 83 % 0.00 in
13:29 74.4 °F 68.5 °F 29.90 in Calm   3.5 mph 82 % 0.00 in
13:34 74.4 °F 68.5 °F 29.89 in ENE 0.7 mph 3.0 mph 82 % 0.00 in
13:39 74.2 °F 68.3 °F 29.89 in NNE 1.5 mph 4.0 mph 82 % 0.00 in
13:44 74.1 °F 68.3 °F 29.89 in NNE 3.0 mph 4.6 mph 82 % 0.00 in
13:49 74.0 °F 68.2 °F 29.89 in NNE 1.4 mph 3.5 mph 82 % 0.00 in
13:54 73.9 °F 68.4 °F 29.89 in NNE 0.2 mph 2.3 mph 83 % 0.00 in
13:59 73.7 °F 68.2 °F 29.89 in NNE 0.8 mph 2.3 mph 83 % 0.00 in
14:04 73.6 °F 68.1 °F 29.89 in NNE 1.1 mph 2.3 mph 83 % 0.00 in
14:09 73.7 °F 68.6 °F 29.89 in North 2.2 mph 4.6 mph 84 % 0.00 in
14:14 73.7 °F 68.2 °F 29.89 in Calm   3.5 mph 83 % 0.00 in
14:19 73.8 °F 68.7 °F 29.89 in NNE 0.8 mph 2.3 mph 84 % 0.00 in
14:24 73.8 °F 68.3 °F 29.89 in NNE 0.4 mph 1.0 mph 83 % 0.00 in
14:30 73.9 °F 68.8 °F 29.89 in NNE 0.1 mph 1.2 mph 84 % 0.00 in
14:35 74.0 °F 68.5 °F 29.89 in NE 0.4 mph 3.5 mph 83 % 0.00 in
14:40 74.0 °F 68.5 °F 29.88 in NE 0.6 mph 2.0 mph 83 % 0.00 in
14:45 74.1 °F 68.6 °F 29.88 in NE 2.7 mph 3.5 mph 83 % 0.00 in
14:50 74.3 °F 68.8 °F 29.88 in NE 1.8 mph 2.3 mph 83 % 0.00 in
14:55 74.5 °F 69.0 °F 29.88 in NNE 0.6 mph 2.3 mph 83 % 0.00 in
15:00 74.7 °F 68.8 °F 29.88 in NE 1.6 mph 4.0 mph 82 % 0.00 in
15:05 74.8 °F 68.9 °F 29.88 in NNE 0.9 mph 2.3 mph 82 % 0.00 in
15:10 74.8 °F 68.9 °F 29.88 in NNE 1.2 mph 3.5 mph 82 % 0.00 in
15:15 74.9 °F 69.0 °F 29.88 in NNE 0.1 mph 2.3 mph 82 % 0.00 in
15:20 74.9 °F 69.0 °F 29.88 in NNE 0.7 mph 2.3 mph 82 % 0.00 in
15:25 74.9 °F 69.0 °F 29.87 in ENE 0.3 mph 3.5 mph 82 % 0.00 in
15:30 74.8 °F 68.9 °F 29.87 in ENE 0.2 mph 1.2 mph 82 % 0.00 in
15:35 74.7 °F 68.8 °F 29.87 in ENE 0.2 mph 1.2 mph 82 % 0.00 in
15:40 74.6 °F 68.7 °F 29.87 in Calm   1.2 mph 82 % 0.00 in
15:45 74.5 °F 69.0 °F 29.87 in ENE 0.2 mph 1.2 mph 83 % 0.00 in
15:50 74.5 °F 69.0 °F 29.87 in Calm   1.0 mph 83 % 0.00 in
15:55 74.5 °F 69.0 °F 29.87 in Calm     83 % 0.00 in
16:00 74.5 °F 69.0 °F 29.86 in Calm   1.2 mph 83 % 0.00 in
16:05 74.5 °F 69.3 °F 29.86 in Calm     84 % 0.00 in
16:10 74.4 °F 68.9 °F 29.86 in Calm     83 % 0.00 in
16:14 74.5 °F 69.3 °F 29.86 in Calm     84 % 0.00 in
16:19 74.6 °F 69.4 °F 29.85 in NE 0.3 mph 2.3 mph 84 % 0.00 in
16:24 74.7 °F 69.5 °F 29.85 in Calm     84 % 0.00 in
16:30 74.8 °F 69.6 °F 29.85 in NE 0.1 mph   84 % 0.00 in
16:40 75.1 °F 70.3 °F 29.85 in Calm     85 % 0.00 in
16:45 75.1 °F 69.9 °F 29.85 in NE 0.1 mph 1.2 mph 84 % 0.00 in
16:50 75.2 °F 69.7 °F 29.85 in Calm   1.2 mph 83 % 0.00 in
16:55 75.3 °F 70.1 °F 29.84 in Calm   1.2 mph 84 % 0.00 in
17:00 75.4 °F 70.2 °F 29.85 in Calm     84 % 0.00 in
17:05 75.6 °F 70.4 °F 29.85 in Calm     84 % 0.00 in
17:10 75.7 °F 70.5 °F 29.85 in NE 0.1 mph   84 % 0.00 in
17:15 75.7 °F 70.5 °F 29.85 in Calm     84 % 0.00 in
17:21 75.7 °F 70.2 °F 29.85 in Calm     83 % 0.00 in
17:26 75.8 °F 70.6 °F 29.85 in Calm     84 % 0.00 in
17:36 75.8 °F 70.6 °F 29.85 in Calm   1.0 mph 84 % 0.00 in
17:41 75.7 °F 70.5 °F 29.83 in Calm     84 % 0.00 in
17:46 75.7 °F 70.5 °F 29.83 in Calm     84 % 0.00 in
17:51 75.6 °F 70.8 °F 29.82 in Calm   1.0 mph 85 % 0.00 in
17:56 75.5 °F 70.7 °F 29.82 in NE 0.1 mph   85 % 0.00 in
18:01 75.4 °F 70.6 °F 29.83 in Calm     85 % 0.00 in
18:06 75.4 °F 70.6 °F 29.82 in Calm     85 % 0.00 in
18:11 75.4 °F 70.6 °F 29.83 in Calm     85 % 0.00 in
18:16 75.3 °F 70.5 °F 29.83 in Calm   1.2 mph 85 % 0.00 in
18:21 75.3 °F 70.1 °F 29.83 in SE 0.5 mph 3.5 mph 84 % 0.00 in
18:26 75.3 °F 70.1 °F 29.83 in Calm   1.2 mph 84 % 0.00 in
18:31 75.4 °F 69.9 °F 29.83 in SE 1.0 mph 3.5 mph 83 % 0.00 in
18:36 75.4 °F 70.2 °F 29.83 in SE 0.7 mph 2.3 mph 84 % 0.00 in
18:41 75.5 °F 70.0 °F 29.83 in SE 2.3 mph 3.5 mph 83 % 0.00 in
18:46 75.4 °F 69.9 °F 29.83 in SE 3.1 mph 4.6 mph 83 % 0.00 in
18:51 75.3 °F 69.8 °F 29.83 in Calm     83 % 0.00 in
18:56 75.2 °F 70.0 °F 29.84 in Calm   1.2 mph 84 % 0.00 in
19:01 75.2 °F 70.0 °F 29.84 in Calm   1.2 mph 84 % 0.00 in
19:06 75.1 °F 69.9 °F 29.84 in SE 0.4 mph 2.3 mph 84 % 0.00 in
19:11 74.9 °F 69.7 °F 29.84 in Calm     84 % 0.00 in
19:16 74.8 °F 70.0 °F 29.84 in SE 0.1 mph 1.2 mph 85 % 0.00 in
19:21 74.6 °F 69.8 °F 29.84 in SE 0.1 mph 1.2 mph 85 % 0.00 in
19:26 74.5 °F 69.7 °F 29.84 in SE 0.1 mph 1.2 mph 85 % 0.00 in
19:31 74.3 °F 69.5 °F 29.84 in SE 0.1 mph 1.2 mph 85 % 0.00 in
19:36 74.2 °F 69.7 °F 29.84 in SE 0.1 mph 2.3 mph 86 % 0.00 in
19:41 74.1 °F 69.6 °F 29.84 in SE 1.2 mph 3.5 mph 86 % 0.00 in
19:46 73.9 °F 69.4 °F 29.84 in SE 0.3 mph 4.0 mph 86 % 0.00 in
19:51 73.7 °F 69.6 °F 29.82 in SE 1.4 mph 3.5 mph 87 % 0.00 in
19:56 73.5 °F 69.4 °F 29.82 in SE 1.8 mph 5.8 mph 87 % 0.00 in
20:01 73.4 °F 69.6 °F 29.84 in Calm     88 % 0.00 in
20:05 73.4 °F 69.3 °F 29.84 in Calm   1.2 mph 87 % 0.00 in
20:10 73.3 °F 69.5 °F 29.85 in SE 0.1 mph 1.2 mph 88 % 0.00 in
20:15 73.3 °F 69.5 °F 29.85 in SE 0.5 mph 2.3 mph 88 % 0.00 in
20:20 73.2 °F 69.4 °F 29.85 in SE 0.1 mph   88 % 0.00 in
20:25 73.1 °F 69.7 °F 29.83 in SE 0.1 mph 1.2 mph 89 % 0.00 in
20:30 73.1 °F 69.7 °F 29.83 in SE 0.1 mph 1.2 mph 89 % 0.00 in
20:35 73.0 °F 69.6 °F 29.82 in SE 0.7 mph 2.3 mph 89 % 0.00 in
20:40 72.9 °F 69.5 °F 29.82 in SE 0.3 mph 3.5 mph 89 % 0.00 in
20:45 72.8 °F 69.7 °F 29.82 in SE 0.2 mph 1.2 mph 90 % 0.00 in
20:46 72.8 °F 69.7 °F 29.83 in SE 0.3 mph 1.2 mph 90 % 0.00 in
20:51 72.7 °F 69.6 °F 29.83 in Calm   3.0 mph 90 % 0.00 in
20:56 72.7 °F 69.6 °F 29.83 in Calm   4.0 mph 90 % 0.00 in
21:01 72.7 °F 69.6 °F 29.84 in SSE 0.1 mph 5.8 mph 90 % 0.00 in
21:06 72.6 °F 69.8 °F 29.84 in SSE 0.1 mph 1.2 mph 91 % 0.00 in
21:11 72.7 °F 69.9 °F 29.83 in SE 0.8 mph 3.5 mph 91 % 0.00 in
21:16 72.7 °F 69.9 °F 29.83 in SSE 3.4 mph 3.5 mph 91 % 0.00 in
21:21 72.7 °F 69.9 °F 29.82 in SE 1.5 mph 3.5 mph 91 % 0.00 in
21:26 72.7 °F 69.9 °F 29.83 in ESE 0.1 mph 1.2 mph 91 % 0.00 in
21:31 72.6 °F 70.2 °F 29.83 in Calm   3.0 mph 92 % 0.00 in
21:36 72.6 °F 70.1 °F 29.83 in SE 2.0 mph 7.0 mph 92 % 0.00 in
21:41 72.6 °F 70.2 °F 29.83 in SE 1.0 mph 5.0 mph 92 % 0.00 in
21:46 72.7 °F 70.2 °F 29.83 in Calm   6.0 mph 92 % 0.00 in
21:51 72.7 °F 70.2 °F 29.83 in South 1.0 mph 5.0 mph 92 % 0.00 in
21:56 72.8 °F 70.7 °F 29.83 in SW 0.7 mph 2.3 mph 93 % 0.00 in
22:01 72.8 °F 70.7 °F 29.83 in WSW 1.9 mph 2.3 mph 93 % 0.00 in
22:06 72.9 °F 70.8 °F 29.83 in South 1.0 mph 5.0 mph 93 % 0.00 in
22:11 72.9 °F 70.8 °F 29.82 in South 1.0 mph 5.0 mph 93 % 0.00 in
22:16 73.0 °F 70.5 °F 29.82 in Calm   3.0 mph 92 % 0.00 in
22:21 73.0 °F 70.5 °F 29.82 in WSW 1.0 mph 2.0 mph 92 % 0.00 in
22:26 73.0 °F 70.5 °F 29.82 in West 1.0 mph 5.0 mph 92 % 0.00 in
22:31 73.1 °F 70.6 °F 29.82 in SW 1.0 mph 3.0 mph 92 % 0.00 in
22:36 73.1 °F 70.6 °F 29.83 in South 1.0 mph 4.0 mph 92 % 0.00 in
22:37 73.1 °F 70.6 °F 29.82 in SSW 1.2 mph 3.5 mph 92 % 0.00 in
22:42 73.1 °F 70.6 °F 29.82 in South 0.2 mph 1.0 mph 92 % 0.00 in
22:44 73.1 °F 70.6 °F 29.82 in SW 0.4 mph 5.8 mph 92 % 0.00 in
22:49 73.1 °F 70.6 °F 29.82 in SSE 0.4 mph 2.3 mph 92 % 0.00 in
22:54 73.0 °F 70.5 °F 29.82 in Calm   2.3 mph 92 % 0.00 in
22:59 73.0 °F 70.5 °F 29.82 in SW 0.1 mph 1.2 mph 92 % 0.00 in
23:04 73.0 °F 70.5 °F 29.82 in SSW 1.3 mph 3.5 mph 92 % 0.00 in
23:09 73.0 °F 70.9 °F 29.82 in WSW 0.9 mph 3.5 mph 93 % 0.00 in
23:14 73.1 °F 71.0 °F 29.81 in SW 0.5 mph 5.8 mph 93 % 0.00 in
23:19 73.1 °F 71.0 °F 29.82 in SSW 0.7 mph 1.2 mph 93 % 0.00 in
23:23 73.1 °F 71.0 °F 29.82 in SW 0.8 mph 3.0 mph 93 % 0.00 in
23:27 73.1 °F 71.0 °F 29.82 in WSW 1.0 mph 3.5 mph 93 % 0.00 in
23:29 73.1 °F 71.0 °F 29.82 in SE 0.1 mph 2.3 mph 93 % 0.00 in
23:32 73.2 °F 71.1 °F 29.82 in SW 0.5 mph 3.5 mph 93 % 0.00 in
23:37 73.2 °F 71.1 °F 29.82 in SW 0.3 mph 2.3 mph 93 % 0.00 in
23:42 73.2 °F 71.1 °F 29.82 in Calm   1.2 mph 93 % 0.00 in
23:47 73.3 °F 71.2 °F 29.82 in SW 0.1 mph 2.3 mph 93 % 0.00 in
23:52 73.3 °F 71.2 °F 29.82 in SW 0.3 mph 1.2 mph 93 % 0.00 in
23:57 73.3 °F 71.2 °F 29.82 in SW 1.0 mph 2.0 mph 93 % 0.00 in
Crab Meadow Weather
Compliments of Weather Underground - 3 mb

Script developed by  Jim McMurry - jmcmurry@mwt.net Adapted for the template by  Wim van der Kuil - Leuven-Template.eu

Weather Terms: Flood Stage - The level or stage at which a stream overflows its banks or the stage at which the overflow of a stream begins to cause damage.